Aeroporto :
LOGIN :

Iscrizione | Disclaimer

   EN    FR    IT 

 










Sommario :    VFR   VFR Marginale   IFR   IFR Intensivo   IFR Molto Intensivo
Visibilità : 
Base nubi : 
>= 8 km
>= 3000ft
5 / 8 km
1000 / 3000 ft
1500m / 5 km
500 / 1000 ft
800 / 1500m
200 / 500 ft
< 800m
< 200 ft
Simboli :   Temporali  Nebbia  Neve Forte  Precipitazioni Forti  Vento > 20 kt
SIGMETs :   Varie  Temporali  Ghiacco  Turbolenza  Onda orograficha  Ceneri Vulcaniche






- Altitudine del aeroporto : 510 ft


LJCE - Cerklje

ULTIMO METAR :
  • 282230Z AUTO VRB01KT 9999 NSC 10/10 Q1024

METARs OBSOLETI :
  • 282200Z AUTO VRB02KT 9999 FEW002/// SCT078/// 10/10 Q1024
  • 282130Z AUTO VRB02KT 5000 BR NCD 10/10 Q1024
  • 282100Z AUTO 00000KT 9999 NCD 11/10 Q1024
  • 282030Z 00000KT CAVOK 11/11 Q1024 RMK BLU
  • 282000Z 21003KT CAVOK 12/11 Q1024 RMK BLU
  • 281930Z VRB02KT CAVOK 13/11 Q1023 RMK BLU

TAF TAF LJCE
Valido dal 28 a 21 ore il 29 a 06 ore UTC


282000Z 2821/2906 VRB02KT CAVOK



MetMap, La meteo Aeronautica in un colpo d'occhio ! - Copyright ORBIFLY Dicembre 2007 - Disclaimer

ORBIFLY MET'MAP TEAM :

Programmazione e sviluppo : Alexandra Zaïnal
Concezione : Baudouin d'Aumeries
Aiuto per la programmazione : Marc-Olivier Méhu
Supporto tecnico e logistico : Manuel Goepfert
Aiuto per la traduzione : Arnaldo La Scala

Contatto : metmap@orbifly.com




FONTI E CREDITI :

   NOAA